Time;durP1;ratioP1;P1;durP2;ratioP2;P2;SDS_P1;SDS_P2;PMS_P1;PMS_P2;Temp;Humidity;BMP_temperature;BMP_pressure;BME280_temperature;BME280_humidity;BME280_pressure;Samples;Min_cycle;Max_cycle;Signal;HPM_P1;HPM_P2
2022/12/17 13:07:00;;;;;;;49.40;27.57;;;;;;;;;;5033382;28;20438;-72
2022/12/17 13:09:32;;;;;;;52.63;27.80;;;;;;;;;;5033447;28;20524;-72
2022/12/17 13:12:11;;;;;;;44.83;23.70;;;;;;;;;;5053288;28;20926;-71
2022/12/17 13:14:46;;;;;;;43.87;25.00;;;;;;;;;;5075040;28;20451;-71
2022/12/17 13:17:23;;;;;;;42.63;23.37;;;;;;;;;;5075628;28;20466;-71
2022/12/17 13:19:59;;;;;;;42.63;23.83;;;;;;;;;;5075233;28;20991;-71
2022/12/17 13:22:30;;;;;;;44.07;25.10;;;;;;;;;;5079230;28;20464;-71
2022/12/17 13:25:09;;;;;;;41.20;23.17;;;;;;;;;;5094229;28;20454;-71
2022/12/17 13:27:39;;;;;;;35.33;20.37;;;;;;;;;;5095515;28;20827;-71
2022/12/17 13:30:15;;;;;;;40.70;22.97;;;;;;;;;;5095315;28;20443;-72
2022/12/17 13:32:46;;;;;;;58.47;28.90;;;;;;;;;;5095185;28;20454;-71
2022/12/17 13:35:18;;;;;;;74.53;36.17;;;;;;;;;;5094899;28;20447;-70
2022/12/17 13:37:51;;;;;;;60.97;32.40;;;;;;;;;;5095172;28;20846;-70
2022/12/17 13:40:23;;;;;;;67.67;32.50;;;;;;;;;;5095336;28;20470;-70
2022/12/17 13:42:50;;;;;;;54.57;30.17;;;;;;;;;;5095099;28;20457;-71
2022/12/17 13:45:18;;;;;;;48.27;26.40;;;;;;;;;;5094850;28;20457;-71
2022/12/17 13:47:53;;;;;;;39.33;25.07;;;;;;;;;;5094903;28;20997;-71
2022/12/17 13:50:22;;;;;;;46.53;25.77;;;;;;;;;;5095263;28;20493;-71
2022/12/17 13:52:49;;;;;;;48.73;24.80;;;;;;;;;;5095045;28;20803;-71
2022/12/17 13:55:20;;;;;;;52.03;24.77;;;;;;;;;;5094514;28;20450;-71
2022/12/17 13:57:48;;;;;;;43.60;24.13;;;;;;;;;;5094598;28;20490;-71
2022/12/17 14:00:23;;;;;;;43.70;25.77;;;;;;;;;;5094990;28;20494;-71
2022/12/17 14:02:52;;;;;;;42.93;23.60;;;;;;;;;;5094765;28;20955;-71
2022/12/17 14:05:23;;;;;;;43.30;25.10;;;;;;;;;;5094389;28;20453;-71
2022/12/17 14:07:50;;;;;;;44.77;23.37;;;;;;;;;;5094571;28;20471;-71
2022/12/17 14:10:18;;;;;;;40.33;22.13;;;;;;;;;;5094712;28;20469;-71
2022/12/17 14:12:45;;;;;;;47.33;25.80;;;;;;;;;;5094716;28;20446;-71
2022/12/17 14:15:19;;;;;;;44.97;25.13;;;;;;;;;;5094280;28;20959;-71
2022/12/17 14:17:47;;;;;;;41.47;25.63;;;;;;;;;;5094480;28;20474;-71
2022/12/17 14:20:17;;;;;;;49.27;25.80;;;;;;;;;;5094654;28;20447;-71
2022/12/17 14:22:47;;;;;;;49.73;27.17;;;;;;;;;;5094559;28;20451;-71
2022/12/17 14:25:16;;;;;;;50.73;27.77;;;;;;;;;;5093882;28;20449;-71
2022/12/17 14:27:50;;;;;;;49.30;27.63;;;;;;;;;;5094207;28;20474;-71
2022/12/17 14:30:22;;;;;;;63.37;31.63;;;;;;;;;;5093095;28;20931;-73
2022/12/17 14:32:49;;;;;;;53.83;28.33;;;;;;;;;;5094034;28;20443;-71
2022/12/17 14:35:28;;;;;;;49.60;27.57;;;;;;;;;;5093868;28;20453;-71
2022/12/17 14:37:55;;;;;;;56.43;30.03;;;;;;;;;;5092903;28;20990;-71
2022/12/17 14:40:24;;;;;;;51.47;28.30;;;;;;;;;;5094243;28;20810;-71
2022/12/17 14:42:51;;;;;;;61.57;30.20;;;;;;;;;;5094042;28;20454;-71
2022/12/17 14:45:23;;;;;;;52.23;30.30;;;;;;;;;;5093428;28;20449;-72
2022/12/17 14:47:54;;;;;;;59.83;30.73;;;;;;;;;;5093904;28;20470;-71
2022/12/17 14:50:33;;;;;;;65.47;32.93;;;;;;;;;;5094140;28;20438;-70
2022/12/17 14:53:01;;;;;;;51.50;30.70;;;;;;;;;;5093943;28;20447;-71
2022/12/17 14:55:33;;;;;;;53.27;30.50;;;;;;;;;;5093391;28;20454;-72
2022/12/17 14:58:24;;;;;;;66.70;33.60;;;;;;;;;;5093650;28;20466;-71
2022/12/17 15:00:53;;;;;;;71.70;38.00;;;;;;;;;;5078513;28;20453;-71
2022/12/17 15:03:21;;;;;;;92.87;43.00;;;;;;;;;;5093703;28;20446;-71
2022/12/17 15:05:52;;;;;;;87.93;40.67;;;;;;;;;;5093297;28;20450;-71
2022/12/17 15:08:20;;;;;;;77.80;39.57;;;;;;;;;;5093422;28;20467;-70
2022/12/17 15:10:47;;;;;;;81.57;36.73;;;;;;;;;;5093524;28;20447;-70
2022/12/17 15:13:14;;;;;;;76.63;40.13;;;;;;;;;;5093801;28;20859;-70
2022/12/17 15:15:41;;;;;;;68.33;34.60;;;;;;;;;;5092826;28;20446;-70
2022/12/17 15:18:08;;;;;;;65.37;35.60;;;;;;;;;;5093309;28;20463;-70
2022/12/17 15:20:36;;;;;;;73.57;38.63;;;;;;;;;;5093430;28;20455;-71
2022/12/17 15:23:04;;;;;;;83.60;39.70;;;;;;;;;;5093341;28;20469;-70
2022/12/17 15:25:31;;;;;;;100.13;44.43;;;;;;;;;;5087168;28;20467;-71
2022/12/17 15:27:59;;;;;;;77.20;43.27;;;;;;;;;;5068678;28;20996;-71
2022/12/17 15:30:26;;;;;;;91.60;40.63;;;;;;;;;;5072290;28;20436;-71
2022/12/17 15:32:53;;;;;;;74.17;36.47;;;;;;;;;;5083266;28;20453;-72
2022/12/17 15:35:20;;;;;;;81.47;41.40;;;;;;;;;;5089576;28;20466;-71
2022/12/17 15:37:47;;;;;;;67.47;36.30;;;;;;;;;;5091591;28;20480;-72
2022/12/17 15:40:16;;;;;;;88.30;40.20;;;;;;;;;;5091242;28;20509;-70
2022/12/17 15:45:28;;;;;;;75.97;37.37;;;;;;;;;;5092090;28;20425;-70
2022/12/17 15:47:55;;;;;;;81.43;35.90;;;;;;;;;;5088972;28;20475;-71
2022/12/17 15:50:22;;;;;;;75.57;34.77;;;;;;;;;;5093112;28;20443;-70
2022/12/17 15:52:49;;;;;;;73.97;34.67;;;;;;;;;;5092951;28;20458;-70
2022/12/17 15:55:18;;;;;;;60.07;33.67;;;;;;;;;;5092690;28;20450;-70
2022/12/17 15:57:45;;;;;;;83.17;37.37;;;;;;;;;;5092582;28;20486;-73
2022/12/17 16:00:13;;;;;;;95.00;47.57;;;;;;;;;;5092776;28;20581;-71
2022/12/17 16:02:41;;;;;;;78.10;33.80;;;;;;;;;;5092863;28;20447;-71
2022/12/17 16:05:08;;;;;;;59.00;29.90;;;;;;;;;;5092495;28;20795;-70
2022/12/17 16:07:36;;;;;;;69.53;31.53;;;;;;;;;;5092758;28;20979;-71
2022/12/17 16:10:04;;;;;;;73.70;39.70;;;;;;;;;;5092901;28;20455;-70
2022/12/17 16:12:32;;;;;;;80.90;36.60;;;;;;;;;;5092765;28;20452;-70
2022/12/17 16:14:59;;;;;;;60.27;30.17;;;;;;;;;;5092237;28;20533;-71
2022/12/17 16:17:27;;;;;;;60.90;30.57;;;;;;;;;;5092589;28;21007;-70
2022/12/17 16:19:54;;;;;;;73.90;37.57;;;;;;;;;;5092513;28;20498;-70
2022/12/17 16:22:21;;;;;;;69.07;34.67;;;;;;;;;;5092341;28;20477;-70
2022/12/17 16:24:48;;;;;;;65.10;34.07;;;;;;;;;;5091829;28;20466;-70
2022/12/17 16:27:16;;;;;;;86.03;35.53;;;;;;;;;;5092482;28;20474;-71
2022/12/17 16:29:46;;;;;;;86.43;42.33;;;;;;;;;;5092500;28;20543;-70
2022/12/17 16:32:13;;;;;;;73.67;38.43;;;;;;;;;;5090624;28;20553;-71
2022/12/17 16:34:41;;;;;;;99.73;49.20;;;;;;;;;;5091719;28;20461;-71
2022/12/17 16:37:09;;;;;;;86.53;42.57;;;;;;;;;;5091936;28;20498;-70
2022/12/17 16:39:36;;;;;;;78.20;37.30;;;;;;;;;;5091765;28;20861;-71
2022/12/17 16:42:03;;;;;;;82.90;42.77;;;;;;;;;;5089733;28;20455;-71
2022/12/17 16:44:30;;;;;;;98.30;46.53;;;;;;;;;;5091926;28;20451;-70
2022/12/17 16:46:59;;;;;;;71.20;35.23;;;;;;;;;;5092212;28;20453;-71
2022/12/17 16:49:26;;;;;;;66.00;35.20;;;;;;;;;;5092366;28;20454;-71
2022/12/17 16:51:54;;;;;;;76.70;38.33;;;;;;;;;;5091887;28;20944;-70
2022/12/17 16:54:22;;;;;;;77.73;38.67;;;;;;;;;;5091940;28;20991;-71
2022/12/17 16:56:49;;;;;;;77.13;41.40;;;;;;;;;;5091774;28;20464;-70
2022/12/17 16:59:17;;;;;;;88.27;42.97;;;;;;;;;;5092289;28;20627;-71
2022/12/17 17:01:46;;;;;;;72.90;36.70;;;;;;;;;;5095736;28;20545;-71
2022/12/17 17:04:15;;;;;;;72.40;35.83;;;;;;;;;;5095672;28;20451;-72
2022/12/17 17:06:43;;;;;;;53.53;27.53;;;;;;;;;;5095250;28;20557;-72
2022/12/17 17:09:11;;;;;;;66.03;31.20;;;;;;;;;;5094041;28;20962;-71
2022/12/17 17:11:38;;;;;;;58.00;27.53;;;;;;;;;;5093034;28;20458;-71
2022/12/17 17:14:06;;;;;;;55.90;29.00;;;;;;;;;;5093306;28;20494;-71
2022/12/17 17:16:33;;;;;;;62.30;30.33;;;;;;;;;;5094255;28;20446;-71
2022/12/17 17:19:01;;;;;;;63.30;28.47;;;;;;;;;;5094234;28;20470;-72
2022/12/17 17:21:30;;;;;;;57.67;28.20;;;;;;;;;;5094397;28;20965;-72
2022/12/17 17:23:58;;;;;;;75.63;39.28;;;;;;;;;;5093282;28;20485;-71
2022/12/17 17:26:26;;;;;;;62.83;30.00;;;;;;;;;;5095651;28;20749;-71
2022/12/17 17:28:53;;;;;;;67.13;34.20;;;;;;;;;;5095317;28;20984;-70
2022/12/17 17:31:22;;;;;;;63.93;29.10;;;;;;;;;;5093560;28;20458;-70
2022/12/17 17:33:50;;;;;;;70.90;29.40;;;;;;;;;;5094747;28;20454;-70
2022/12/17 17:36:18;;;;;;;57.13;28.17;;;;;;;;;;5095360;28;20983;-70
2022/12/17 17:38:47;;;;;;;63.83;27.40;;;;;;;;;;5095016;28;20991;-70
2022/12/17 17:41:15;;;;;;;77.20;37.63;;;;;;;;;;5095310;28;20486;-70
2022/12/17 17:43:43;;;;;;;59.97;30.07;;;;;;;;;;5095016;28;20447;-71
2022/12/17 17:46:11;;;;;;;50.40;27.37;;;;;;;;;;5095284;28;20442;-71
2022/12/17 17:48:38;;;;;;;76.83;37.00;;;;;;;;;;5094872;28;20998;-72
2022/12/17 17:51:06;;;;;;;212.30;103.50;;;;;;;;;;5095119;28;20450;-71
2022/12/17 17:53:33;;;;;;;59.80;29.10;;;;;;;;;;5094741;28;20446;-71
2022/12/17 17:56:05;;;;;;;53.00;26.03;;;;;;;;;;5094841;28;20458;-70
2022/12/17 17:58:33;;;;;;;41.43;20.87;;;;;;;;;;5094912;28;20470;-71
2022/12/17 18:01:00;;;;;;;58.13;27.30;;;;;;;;;;5094687;28;20944;-70
2022/12/17 18:03:29;;;;;;;46.60;25.30;;;;;;;;;;5094491;28;20469;-76
2022/12/17 18:05:56;;;;;;;49.87;26.50;;;;;;;;;;5094662;28;20461;-71
2022/12/17 18:08:24;;;;;;;64.53;32.87;;;;;;;;;;5094616;28;20481;-70
2022/12/17 18:10:57;;;;;;;51.43;27.83;;;;;;;;;;5094347;28;20443;-71
2022/12/17 18:16:11;;;;;;;62.73;31.50;;;;;;;;;;5094751;28;20434;-71
2022/12/17 18:18:38;;;;;;;59.77;26.97;;;;;;;;;;5094356;28;20470;-72
2022/12/17 18:21:07;;;;;;;53.17;27.33;;;;;;;;;;5094417;28;20482;-70
2022/12/17 18:23:34;;;;;;;56.30;25.30;;;;;;;;;;5094014;28;20791;-71
2022/12/17 18:26:05;;;;;;;56.07;28.70;;;;;;;;;;5094202;28;20450;-71
2022/12/17 18:28:34;;;;;;;57.37;26.43;;;;;;;;;;5094356;28;21053;-70
2022/12/17 18:31:05;;;;;;;61.23;26.60;;;;;;;;;;5092658;28;20457;-71
2022/12/17 18:33:33;;;;;;;61.60;30.07;;;;;;;;;;5094232;28;20963;-70
2022/12/17 18:36:00;;;;;;;62.03;26.97;;;;;;;;;;5094058;28;20823;-71
2022/12/17 18:38:27;;;;;;;61.43;28.50;;;;;;;;;;5093838;28;21061;-73
2022/12/17 18:40:54;;;;;;;71.90;32.10;;;;;;;;;;5093932;28;20497;-71
2022/12/17 18:43:23;;;;;;;70.00;28.50;;;;;;;;;;5093943;28;20455;-76
2022/12/17 18:45:52;;;;;;;68.60;35.17;;;;;;;;;;5093553;28;20447;-70
2022/12/17 18:48:19;;;;;;;72.23;31.43;;;;;;;;;;5093829;28;20471;-71
2022/12/17 18:50:47;;;;;;;67.83;31.07;;;;;;;;;;5093812;28;20469;-71
2022/12/17 18:53:14;;;;;;;116.90;43.67;;;;;;;;;;5093780;28;20447;-71
2022/12/17 18:55:41;;;;;;;84.17;34.07;;;;;;;;;;5093073;28;20447;-71
2022/12/17 18:58:09;;;;;;;51.87;26.40;;;;;;;;;;5093733;28;20470;-70
2022/12/17 19:00:37;;;;;;;60.30;28.37;;;;;;;;;;5093663;28;20490;-70
2022/12/17 19:03:08;;;;;;;65.97;26.83;;;;;;;;;;5093791;28;20450;-71
2022/12/17 19:05:38;;;;;;;65.27;25.40;;;;;;;;;;5093208;28;21111;-71
2022/12/17 19:08:05;;;;;;;65.03;31.40;;;;;;;;;;5093565;28;20471;-71
2022/12/17 19:10:36;;;;;;;70.80;35.37;;;;;;;;;;5093782;28;20544;-70
2022/12/17 19:13:03;;;;;;;81.30;29.37;;;;;;;;;;5093508;28;20454;-70
2022/12/17 19:15:30;;;;;;;64.80;31.37;;;;;;;;;;5093153;28;20823;-70
2022/12/17 19:17:57;;;;;;;61.27;25.53;;;;;;;;;;5093224;28;20477;-70
2022/12/17 19:20:26;;;;;;;59.90;27.97;;;;;;;;;;5093199;28;21003;-70
2022/12/17 19:22:53;;;;;;;70.80;31.47;;;;;;;;;;5092695;28;20459;-70
2022/12/17 19:25:20;;;;;;;69.33;30.30;;;;;;;;;;5092965;28;20458;-70
2022/12/17 19:27:47;;;;;;;64.50;30.97;;;;;;;;;;5093091;28;20489;-71
2022/12/17 19:30:14;;;;;;;47.30;25.60;;;;;;;;;;5091886;28;20443;-75
2022/12/17 19:32:42;;;;;;;62.87;31.20;;;;;;;;;;5092821;28;20788;-71
2022/12/17 19:35:09;;;;;;;47.53;24.13;;;;;;;;;;5092687;28;20458;-70
2022/12/17 19:37:38;;;;;;;61.67;28.07;;;;;;;;;;5093109;28;20474;-71
2022/12/17 19:40:05;;;;;;;51.97;24.73;;;;;;;;;;5092980;28;20578;-70
2022/12/17 19:42:32;;;;;;;47.00;23.50;;;;;;;;;;5093060;28;20454;-70
2022/12/17 19:45:00;;;;;;;55.07;24.83;;;;;;;;;;5092559;28;20816;-72
2022/12/17 19:47:29;;;;;;;59.30;26.00;;;;;;;;;;5093056;28;20470;-71
2022/12/17 19:49:56;;;;;;;64.63;30.27;;;;;;;;;;5092764;28;20798;-70
2022/12/17 19:52:23;;;;;;;53.93;24.70;;;;;;;;;;5093112;28;20442;-70
2022/12/17 19:54:52;;;;;;;58.60;27.80;;;;;;;;;;5092670;28;20450;-70
2022/12/17 19:57:19;;;;;;;67.93;32.30;;;;;;;;;;5092716;28;20486;-70
2022/12/17 19:59:46;;;;;;;71.43;31.70;;;;;;;;;;5092528;28;20458;-70
2022/12/17 20:02:15;;;;;;;65.93;28.73;;;;;;;;;;5092927;28;20458;-70
2022/12/17 20:04:43;;;;;;;67.80;29.50;;;;;;;;;;5092309;28;20486;-70
2022/12/17 20:07:10;;;;;;;147.67;60.53;;;;;;;;;;5092661;28;20474;-70
2022/12/17 20:09:39;;;;;;;62.57;28.43;;;;;;;;;;5092807;28;20459;-71
2022/12/17 20:12:07;;;;;;;241.57;127.40;;;;;;;;;;5092536;28;20455;-71
2022/12/17 20:14:36;;;;;;;57.17;27.10;;;;;;;;;;5092232;28;20450;-71
2022/12/17 20:17:04;;;;;;;294.80;85.80;;;;;;;;;;5092702;28;20477;-71
2022/12/17 20:19:32;;;;;;;113.03;35.80;;;;;;;;;;5092639;28;20943;-70
2022/12/17 20:21:59;;;;;;;113.40;36.37;;;;;;;;;;5092357;28;20482;-70
2022/12/17 20:24:27;;;;;;;122.23;58.80;;;;;;;;;;5092121;28;20469;-71
2022/12/17 20:26:55;;;;;;;63.00;27.77;;;;;;;;;;5092290;28;20947;-71
2022/12/17 20:29:24;;;;;;;47.17;23.83;;;;;;;;;;5092806;28;20823;-71
2022/12/17 20:31:52;;;;;;;57.50;26.27;;;;;;;;;;5090574;28;20451;-71
2022/12/17 20:34:23;;;;;;;50.10;22.00;;;;;;;;;;5093405;28;20454;-72
2022/12/17 20:36:50;;;;;;;63.27;25.97;;;;;;;;;;5096674;28;20461;-70
2022/12/17 20:39:17;;;;;;;54.97;23.73;;;;;;;;;;5096483;28;20446;-70
2022/12/17 20:41:45;;;;;;;52.10;23.90;;;;;;;;;;5096222;28;20497;-70
2022/12/17 20:44:13;;;;;;;51.13;21.97;;;;;;;;;;5095814;28;20469;-70
2022/12/17 20:46:42;;;;;;;63.23;29.37;;;;;;;;;;5096323;28;20962;-71
2022/12/17 20:49:11;;;;;;;59.17;25.63;;;;;;;;;;5096321;28;20453;-72
2022/12/17 20:51:38;;;;;;;57.73;26.50;;;;;;;;;;5096081;28;20453;-73
2022/12/17 20:54:07;;;;;;;54.77;23.87;;;;;;;;;;5095656;28;20462;-71
2022/12/17 20:56:35;;;;;;;55.10;23.20;;;;;;;;;;5096013;28;20553;-70
2022/12/17 20:59:03;;;;;;;68.67;28.53;;;;;;;;;;5095999;28;20472;-70
2022/12/17 21:01:31;;;;;;;63.50;25.27;;;;;;;;;;5095471;28;20478;-71
2022/12/17 21:03:59;;;;;;;55.50;24.33;;;;;;;;;;5094619;28;20474;-71
2022/12/17 21:06:29;;;;;;;64.03;27.30;;;;;;;;;;5095973;28;20455;-71
2022/12/17 21:08:57;;;;;;;65.47;27.20;;;;;;;;;;5095944;28;20474;-71
2022/12/17 21:11:25;;;;;;;49.00;24.60;;;;;;;;;;5094985;28;20458;-71
2022/12/17 21:13:52;;;;;;;24.07;11.67;;;;;;;;;;5095430;28;20457;-71
2022/12/17 21:16:20;;;;;;;45.10;22.20;;;;;;;;;;5095857;28;20801;-71
2022/12/17 21:18:47;;;;;;;47.17;20.90;;;;;;;;;;5095583;28;20565;-72
2022/12/17 21:21:17;;;;;;;50.03;24.70;;;;;;;;;;5095730;28;20503;-71
2022/12/17 21:23:45;;;;;;;54.63;23.33;;;;;;;;;;5095039;28;20520;-73
2022/12/17 21:26:13;;;;;;;52.43;19.87;;;;;;;;;;5095680;28;20499;-72
2022/12/17 21:28:43;;;;;;;68.30;26.53;;;;;;;;;;5095458;28;20531;-71
2022/12/17 21:31:15;;;;;;;73.80;29.07;;;;;;;;;;5093848;28;20533;-72
2022/12/17 21:33:42;;;;;;;53.97;23.10;;;;;;;;;;5094834;28;20459;-72
2022/12/17 21:36:09;;;;;;;37.70;16.17;;;;;;;;;;5095675;28;20938;-72
2022/12/17 21:38:38;;;;;;;25.63;14.50;;;;;;;;;;5095219;28;20481;-72
2022/12/17 21:41:06;;;;;;;53.50;23.00;;;;;;;;;;5095315;28;20487;-72
2022/12/17 21:43:33;;;;;;;55.33;23.73;;;;;;;;;;5094797;28;20482;-72
2022/12/17 21:46:00;;;;;;;33.13;17.27;;;;;;;;;;5094464;28;20962;-72
2022/12/17 21:48:27;;;;;;;51.70;22.60;;;;;;;;;;5095072;28;20471;-72
2022/12/17 21:50:55;;;;;;;43.93;19.13;;;;;;;;;;5095109;28;20443;-71
2022/12/17 21:53:22;;;;;;;68.13;26.97;;;;;;;;;;5095132;28;20977;-73
2022/12/17 21:55:51;;;;;;;48.50;19.90;;;;;;;;;;5094388;28;20447;-71
2022/12/17 21:58:20;;;;;;;39.23;18.90;;;;;;;;;;5095079;28;20471;-73
2022/12/17 22:00:47;;;;;;;58.70;24.97;;;;;;;;;;5094593;28;20831;-72
2022/12/17 22:03:15;;;;;;;56.33;24.23;;;;;;;;;;5094950;28;20453;-71
2022/12/17 22:05:42;;;;;;;45.30;19.40;;;;;;;;;;5094298;28;20457;-71
2022/12/17 22:08:11;;;;;;;37.07;17.17;;;;;;;;;;5094715;28;20470;-71
2022/12/17 22:10:40;;;;;;;37.93;19.77;;;;;;;;;;5094633;28;20451;-72
2022/12/17 22:15:55;;;;;;;51.70;23.03;;;;;;;;;;5094725;28;20914;-71
2022/12/17 22:18:22;;;;;;;43.90;18.20;;;;;;;;;;5094742;28;20467;-71
2022/12/17 22:20:57;;;;;;;44.40;19.57;;;;;;;;;;5094432;28;20486;-71
2022/12/17 22:23:24;;;;;;;27.63;15.20;;;;;;;;;;5094438;28;20453;-71
2022/12/17 22:25:51;;;;;;;59.83;23.73;;;;;;;;;;5093927;28;20450;-73
2022/12/17 22:28:19;;;;;;;62.50;23.17;;;;;;;;;;5094334;28;20474;-71
2022/12/17 22:33:31;;;;;;;50.03;25.20;;;;;;;;;;5093947;28;20422;-72
2022/12/17 22:36:01;;;;;;;54.10;22.77;;;;;;;;;;5094079;28;20450;-73
2022/12/17 22:38:28;;;;;;;45.77;24.27;;;;;;;;;;5094256;28;20876;-71
2022/12/17 22:40:55;;;;;;;75.83;28.27;;;;;;;;;;5093991;28;21007;-71
2022/12/17 22:43:28;;;;;;;60.80;23.60;;;;;;;;;;5094220;28;20817;-71
2022/12/17 22:45:59;;;;;;;42.00;18.17;;;;;;;;;;5094172;28;20454;-73
2022/12/17 22:48:26;;;;;;;44.77;22.07;;;;;;;;;;5094055;28;20830;-73
2022/12/17 22:50:53;;;;;;;65.33;27.70;;;;;;;;;;5093839;28;20447;-70
2022/12/17 22:53:20;;;;;;;52.43;23.27;;;;;;;;;;5093924;28;20450;-72
2022/12/17 22:55:48;;;;;;;49.17;22.37;;;;;;;;;;5093283;28;20454;-70
2022/12/17 22:58:15;;;;;;;60.43;24.30;;;;;;;;;;5093107;28;20469;-70
2022/12/17 23:00:43;;;;;;;61.80;27.13;;;;;;;;;;5093656;28;20462;-72
2022/12/17 23:03:11;;;;;;;59.87;23.03;;;;;;;;;;5093735;28;20454;-70
2022/12/17 23:05:38;;;;;;;35.10;18.63;;;;;;;;;;5093053;28;20494;-71
2022/12/17 23:08:05;;;;;;;67.83;23.80;;;;;;;;;;5093765;28;20471;-70
2022/12/17 23:10:32;;;;;;;62.97;22.70;;;;;;;;;;5093960;28;20932;-70
2022/12/17 23:12:59;;;;;;;69.73;24.47;;;;;;;;;;5093520;28;20458;-71
2022/12/17 23:15:28;;;;;;;35.73;13.67;;;;;;;;;;5092937;28;20450;-71
2022/12/17 23:17:58;;;;;;;41.20;21.20;;;;;;;;;;5093362;28;20474;-70
2022/12/17 23:20:25;;;;;;;46.03;20.20;;;;;;;;;;5093515;28;20454;-70
2022/12/17 23:22:52;;;;;;;52.93;22.47;;;;;;;;;;5093346;28;20498;-70
2022/12/17 23:25:20;;;;;;;42.77;19.77;;;;;;;;;;5092694;28;20446;-70
2022/12/17 23:27:47;;;;;;;44.00;17.30;;;;;;;;;;5093197;28;20471;-72
2022/12/17 23:30:15;;;;;;;41.60;17.27;;;;;;;;;;5092261;28;20454;-71
2022/12/17 23:32:42;;;;;;;50.80;25.57;;;;;;;;;;5092832;28;20442;-71
2022/12/17 23:35:11;;;;;;;54.23;19.50;;;;;;;;;;5092715;28;20828;-71
2022/12/17 23:37:39;;;;;;;62.73;26.40;;;;;;;;;;5093034;28;20908;-71
2022/12/17 23:40:07;;;;;;;64.10;24.90;;;;;;;;;;5093166;28;20454;-71
2022/12/17 23:42:34;;;;;;;57.53;25.73;;;;;;;;;;5093036;28;21003;-72
2022/12/17 23:45:01;;;;;;;51.93;23.20;;;;;;;;;;5092416;28;20446;-71
2022/12/17 23:47:28;;;;;;;69.63;27.03;;;;;;;;;;5092928;28;20482;-71
2022/12/17 23:49:55;;;;;;;46.93;20.87;;;;;;;;;;5092940;28;20454;-71
2022/12/17 23:52:24;;;;;;;68.20;27.97;;;;;;;;;;5093012;28;20457;-70
2022/12/17 23:54:51;;;;;;;46.27;20.13;;;;;;;;;;5092263;28;20450;-71
2022/12/17 23:57:18;;;;;;;62.07;24.70;;;;;;;;;;5092732;28;20854;-72
2022/12/17 23:59:45;;;;;;;62.23;25.20;;;;;;;;;;5092767;28;20447;-70
